sensor_id;sensor_type;location;lat;lon;timestamp;temperature;humidity
8231;DHT22;4156;50.908;6.974;2023-03-01T00:01:29;3.80;99.90
8231;DHT22;4156;50.908;6.974;2023-03-01T00:03:55;3.80;99.90
8231;DHT22;4156;50.908;6.974;2023-03-01T00:06:22;3.70;99.90
8231;DHT22;4156;50.908;6.974;2023-03-01T00:08:48;3.70;99.90
8231;DHT22;4156;50.908;6.974;2023-03-01T00:11:18;3.70;99.90
8231;DHT22;4156;50.908;6.974;2023-03-01T00:13:46;3.70;99.90
8231;DHT22;4156;50.908;6.974;2023-03-01T00:16:18;3.70;99.90
8231;DHT22;4156;50.908;6.974;2023-03-01T00:18:44;3.70;99.90
8231;DHT22;4156;50.908;6.974;2023-03-01T00:21:10;3.70;99.90
8231;DHT22;4156;50.908;6.974;2023-03-01T00:23:36;3.70;99.90
8231;DHT22;4156;50.908;6.974;2023-03-01T00:26:05;3.70;99.90
8231;DHT22;4156;50.908;6.974;2023-03-01T00:28:31;3.70;99.90
8231;DHT22;4156;50.908;6.974;2023-03-01T00:31:05;3.70;99.90
8231;DHT22;4156;50.908;6.974;2023-03-01T00:33:31;3.70;99.90
8231;DHT22;4156;50.908;6.974;2023-03-01T00:36:00;3.70;99.90
8231;DHT22;4156;50.908;6.974;2023-03-01T00:38:25;3.70;99.90
8231;DHT22;4156;50.908;6.974;2023-03-01T00:40:51;3.60;99.90
8231;DHT22;4156;50.908;6.974;2023-03-01T00:43:17;3.60;99.90
8231;DHT22;4156;50.908;6.974;2023-03-01T00:45:42;3.60;99.90
8231;DHT22;4156;50.908;6.974;2023-03-01T00:48:08;3.60;99.90
8231;DHT22;4156;50.908;6.974;2023-03-01T00:50:34;3.60;99.90
8231;DHT22;4156;50.908;6.974;2023-03-01T00:52:59;3.60;99.90
8231;DHT22;4156;50.908;6.974;2023-03-01T00:55:25;3.60;99.90
8231;DHT22;4156;50.908;6.974;2023-03-01T00:57:51;3.60;99.90
8231;DHT22;4156;50.908;6.974;2023-03-01T01:00:17;3.60;99.90
8231;DHT22;4156;50.908;6.974;2023-03-01T01:02:44;3.60;99.90
8231;DHT22;4156;50.908;6.974;2023-03-01T01:05:09;3.50;99.90
8231;DHT22;4156;50.908;6.974;2023-03-01T01:07:35;3.50;99.90
8231;DHT22;4156;50.908;6.974;2023-03-01T01:10:01;3.50;99.90
8231;DHT22;4156;50.908;6.974;2023-03-01T01:12:26;3.50;99.90
8231;DHT22;4156;50.908;6.974;2023-03-01T01:14:52;3.50;99.90
8231;DHT22;4156;50.908;6.974;2023-03-01T01:17:17;3.50;99.90
8231;DHT22;4156;50.908;6.974;2023-03-01T01:19:43;3.50;99.90
8231;DHT22;4156;50.908;6.974;2023-03-01T01:22:09;3.50;99.90
8231;DHT22;4156;50.908;6.974;2023-03-01T01:24:35;3.40;99.90
8231;DHT22;4156;50.908;6.974;2023-03-01T01:27:01;3.40;99.90
8231;DHT22;4156;50.908;6.974;2023-03-01T01:29:27;3.40;99.90
8231;DHT22;4156;50.908;6.974;2023-03-01T01:31:52;3.40;99.90
8231;DHT22;4156;50.908;6.974;2023-03-01T01:34:19;3.40;99.90
8231;DHT22;4156;50.908;6.974;2023-03-01T01:36:50;3.40;99.90
8231;DHT22;4156;50.908;6.974;2023-03-01T01:39:16;3.40;99.90
8231;DHT22;4156;50.908;6.974;2023-03-01T01:41:42;3.40;99.90
8231;DHT22;4156;50.908;6.974;2023-03-01T01:46:54;3.40;99.90
8231;DHT22;4156;50.908;6.974;2023-03-01T01:52:09;3.40;99.90
8231;DHT22;4156;50.908;6.974;2023-03-01T01:55:26;3.30;99.90
8231;DHT22;4156;50.908;6.974;2023-03-01T01:57:32;3.30;99.90
8231;DHT22;4156;50.908;6.974;2023-03-01T02:00:10;3.30;99.90
8231;DHT22;4156;50.908;6.974;2023-03-01T02:02:37;3.30;99.90
8231;DHT22;4156;50.908;6.974;2023-03-01T02:08:05;3.30;99.90
8231;DHT22;4156;50.908;6.974;2023-03-01T02:10:33;3.20;99.90
8231;DHT22;4156;50.908;6.974;2023-03-01T02:13:00;3.20;99.90
8231;DHT22;4156;50.908;6.974;2023-03-01T02:15:26;3.20;99.90
8231;DHT22;4156;50.908;6.974;2023-03-01T02:17:53;3.20;99.90
8231;DHT22;4156;50.908;6.974;2023-03-01T02:20:27;3.20;99.90
8231;DHT22;4156;50.908;6.974;2023-03-01T02:22:55;3.20;99.90
8231;DHT22;4156;50.908;6.974;2023-03-01T02:25:28;3.20;99.90
8231;DHT22;4156;50.908;6.974;2023-03-01T02:30:47;3.10;99.90
8231;DHT22;4156;50.908;6.974;2023-03-01T02:33:33;3.10;99.90
8231;DHT22;4156;50.908;6.974;2023-03-01T02:36:03;3.10;99.90
8231;DHT22;4156;50.908;6.974;2023-03-01T02:38:31;3.10;99.90
8231;DHT22;4156;50.908;6.974;2023-03-01T02:40:57;3.00;99.90
8231;DHT22;4156;50.908;6.974;2023-03-01T02:43:29;3.00;99.90
8231;DHT22;4156;50.908;6.974;2023-03-01T02:45:59;3.00;99.90
8231;DHT22;4156;50.908;6.974;2023-03-01T02:48:27;3.00;99.90
8231;DHT22;4156;50.908;6.974;2023-03-01T02:51:09;3.00;99.90
8231;DHT22;4156;50.908;6.974;2023-03-01T02:53:55;3.00;99.90
8231;DHT22;4156;50.908;6.974;2023-03-01T02:56:21;3.00;99.90
8231;DHT22;4156;50.908;6.974;2023-03-01T02:58:47;2.90;99.90
8231;DHT22;4156;50.908;6.974;2023-03-01T03:01:16;2.90;99.90
8231;DHT22;4156;50.908;6.974;2023-03-01T03:03:42;2.90;99.90
8231;DHT22;4156;50.908;6.974;2023-03-01T03:06:09;2.90;99.90
8231;DHT22;4156;50.908;6.974;2023-03-01T03:08:35;2.90;99.90
8231;DHT22;4156;50.908;6.974;2023-03-01T03:11:01;2.90;99.90
8231;DHT22;4156;50.908;6.974;2023-03-01T03:13:26;2.90;99.90
8231;DHT22;4156;50.908;6.974;2023-03-01T03:15:57;2.90;99.90
8231;DHT22;4156;50.908;6.974;2023-03-01T03:18:23;2.90;99.90
8231;DHT22;4156;50.908;6.974;2023-03-01T03:20:52;2.90;99.90
8231;DHT22;4156;50.908;6.974;2023-03-01T03:23:19;2.80;99.90
8231;DHT22;4156;50.908;6.974;2023-03-01T03:25:48;2.80;99.90
8231;DHT22;4156;50.908;6.974;2023-03-01T03:28:14;2.80;99.90
8231;DHT22;4156;50.908;6.974;2023-03-01T03:30:41;2.80;99.90
8231;DHT22;4156;50.908;6.974;2023-03-01T03:33:07;2.80;99.90
8231;DHT22;4156;50.908;6.974;2023-03-01T03:35:46;2.80;99.90
8231;DHT22;4156;50.908;6.974;2023-03-01T03:38:13;2.80;99.90
8231;DHT22;4156;50.908;6.974;2023-03-01T03:41:06;2.80;99.90
8231;DHT22;4156;50.908;6.974;2023-03-01T03:43:35;2.80;99.90
8231;DHT22;4156;50.908;6.974;2023-03-01T03:46:01;2.80;99.90
8231;DHT22;4156;50.908;6.974;2023-03-01T03:48:31;2.70;99.90
8231;DHT22;4156;50.908;6.974;2023-03-01T03:50:58;2.80;99.90
8231;DHT22;4156;50.908;6.974;2023-03-01T03:53:27;2.70;99.90
8231;DHT22;4156;50.908;6.974;2023-03-01T03:55:54;2.70;99.90
8231;DHT22;4156;50.908;6.974;2023-03-01T03:58:22;2.70;99.90
8231;DHT22;4156;50.908;6.974;2023-03-01T04:00:50;2.70;99.90
8231;DHT22;4156;50.908;6.974;2023-03-01T04:03:17;2.70;99.90
8231;DHT22;4156;50.908;6.974;2023-03-01T04:05:44;2.60;99.90
8231;DHT22;4156;50.908;6.974;2023-03-01T04:08:10;2.60;99.90
8231;DHT22;4156;50.908;6.974;2023-03-01T04:10:44;2.70;99.90
8231;DHT22;4156;50.908;6.974;2023-03-01T04:13:13;2.70;99.90
8231;DHT22;4156;50.908;6.974;2023-03-01T04:15:40;2.60;99.90
8231;DHT22;4156;50.908;6.974;2023-03-01T04:18:06;2.60;99.90
8231;DHT22;4156;50.908;6.974;2023-03-01T04:20:33;2.60;99.90
8231;DHT22;4156;50.908;6.974;2023-03-01T04:23:07;2.60;99.90
8231;DHT22;4156;50.908;6.974;2023-03-01T04:25:49;2.60;99.90
8231;DHT22;4156;50.908;6.974;2023-03-01T04:28:35;2.60;99.90
8231;DHT22;4156;50.908;6.974;2023-03-01T04:31:14;2.60;99.90
8231;DHT22;4156;50.908;6.974;2023-03-01T04:33:42;2.60;99.90
8231;DHT22;4156;50.908;6.974;2023-03-01T04:36:09;2.60;99.90
8231;DHT22;4156;50.908;6.974;2023-03-01T04:38:36;2.60;99.90
8231;DHT22;4156;50.908;6.974;2023-03-01T04:41:04;2.60;99.90
8231;DHT22;4156;50.908;6.974;2023-03-01T04:43:29;2.60;99.90
8231;DHT22;4156;50.908;6.974;2023-03-01T04:46:00;2.60;99.90
8231;DHT22;4156;50.908;6.974;2023-03-01T04:48:28;2.60;99.90
8231;DHT22;4156;50.908;6.974;2023-03-01T04:50:53;2.60;99.90
8231;DHT22;4156;50.908;6.974;2023-03-01T04:53:19;2.60;99.90
8231;DHT22;4156;50.908;6.974;2023-03-01T04:55:44;2.50;99.90
8231;DHT22;4156;50.908;6.974;2023-03-01T04:58:10;2.50;99.90
8231;DHT22;4156;50.908;6.974;2023-03-01T05:00:35;2.50;99.90
8231;DHT22;4156;50.908;6.974;2023-03-01T05:03:01;2.50;99.90
8231;DHT22;4156;50.908;6.974;2023-03-01T05:05:35;2.50;99.90
8231;DHT22;4156;50.908;6.974;2023-03-01T05:08:04;2.50;99.90
8231;DHT22;4156;50.908;6.974;2023-03-01T05:10:32;2.50;99.90
8231;DHT22;4156;50.908;6.974;2023-03-01T05:12:58;2.50;99.90
8231;DHT22;4156;50.908;6.974;2023-03-01T05:15:26;2.50;99.90
8231;DHT22;4156;50.908;6.974;2023-03-01T05:17:53;2.50;99.90
8231;DHT22;4156;50.908;6.974;2023-03-01T05:20:20;2.50;99.90
8231;DHT22;4156;50.908;6.974;2023-03-01T05:22:49;2.40;99.90
8231;DHT22;4156;50.908;6.974;2023-03-01T05:25:14;2.40;99.90
8231;DHT22;4156;50.908;6.974;2023-03-01T05:27:40;2.40;99.90
8231;DHT22;4156;50.908;6.974;2023-03-01T05:30:06;2.40;99.90
8231;DHT22;4156;50.908;6.974;2023-03-01T05:32:47;2.40;99.90
8231;DHT22;4156;50.908;6.974;2023-03-01T05:35:15;2.40;99.90
8231;DHT22;4156;50.908;6.974;2023-03-01T05:37:47;2.30;99.90
8231;DHT22;4156;50.908;6.974;2023-03-01T05:40:15;2.40;99.90
8231;DHT22;4156;50.908;6.974;2023-03-01T05:42:43;2.30;99.90
8231;DHT22;4156;50.908;6.974;2023-03-01T05:45:09;2.30;99.90
8231;DHT22;4156;50.908;6.974;2023-03-01T05:47:35;2.30;99.90
8231;DHT22;4156;50.908;6.974;2023-03-01T05:50:01;2.30;99.90
8231;DHT22;4156;50.908;6.974;2023-03-01T05:52:26;2.30;99.90
8231;DHT22;4156;50.908;6.974;2023-03-01T05:54:52;2.20;99.90
8231;DHT22;4156;50.908;6.974;2023-03-01T05:57:17;2.20;99.90
8231;DHT22;4156;50.908;6.974;2023-03-01T05:59:43;2.20;99.90
8231;DHT22;4156;50.908;6.974;2023-03-01T06:02:08;2.20;99.90
8231;DHT22;4156;50.908;6.974;2023-03-01T06:04:34;2.30;99.90
8231;DHT22;4156;50.908;6.974;2023-03-01T06:07:00;2.20;99.90
8231;DHT22;4156;50.908;6.974;2023-03-01T06:09:25;2.20;99.90
8231;DHT22;4156;50.908;6.974;2023-03-01T06:11:51;2.30;99.90
8231;DHT22;4156;50.908;6.974;2023-03-01T06:14:16;2.20;99.90
8231;DHT22;4156;50.908;6.974;2023-03-01T06:16:42;2.20;99.90
8231;DHT22;4156;50.908;6.974;2023-03-01T06:19:07;2.20;99.90
8231;DHT22;4156;50.908;6.974;2023-03-01T06:21:33;2.20;99.90
8231;DHT22;4156;50.908;6.974;2023-03-01T06:23:58;2.20;99.90
8231;DHT22;4156;50.908;6.974;2023-03-01T06:26:24;2.20;99.90
8231;DHT22;4156;50.908;6.974;2023-03-01T06:28:49;2.10;99.90
8231;DHT22;4156;50.908;6.974;2023-03-01T06:31:15;2.10;99.90
8231;DHT22;4156;50.908;6.974;2023-03-01T06:33:41;2.10;99.90
8231;DHT22;4156;50.908;6.974;2023-03-01T06:36:07;2.10;99.90
8231;DHT22;4156;50.908;6.974;2023-03-01T06:38:33;2.10;99.90
8231;DHT22;4156;50.908;6.974;2023-03-01T06:40:59;2.10;99.90
8231;DHT22;4156;50.908;6.974;2023-03-01T06:43:24;2.10;99.90
8231;DHT22;4156;50.908;6.974;2023-03-01T06:45:50;2.10;99.90
8231;DHT22;4156;50.908;6.974;2023-03-01T06:48:16;2.10;99.90
8231;DHT22;4156;50.908;6.974;2023-03-01T06:50:42;2.10;99.90
8231;DHT22;4156;50.908;6.974;2023-03-01T06:53:07;2.10;99.90
8231;DHT22;4156;50.908;6.974;2023-03-01T06:55:33;2.10;99.90
8231;DHT22;4156;50.908;6.974;2023-03-01T06:58:00;2.10;99.90
8231;DHT22;4156;50.908;6.974;2023-03-01T07:00:26;2.10;99.90
8231;DHT22;4156;50.908;6.974;2023-03-01T07:02:53;2.10;99.90
8231;DHT22;4156;50.908;6.974;2023-03-01T07:05:18;2.10;99.90
8231;DHT22;4156;50.908;6.974;2023-03-01T07:07:44;2.10;99.90
8231;DHT22;4156;50.908;6.974;2023-03-01T07:10:11;2.10;99.90
8231;DHT22;4156;50.908;6.974;2023-03-01T07:12:37;2.20;99.90
8231;DHT22;4156;50.908;6.974;2023-03-01T07:15:03;2.30;99.90
8231;DHT22;4156;50.908;6.974;2023-03-01T07:17:29;2.30;99.90
8231;DHT22;4156;50.908;6.974;2023-03-01T07:19:54;2.30;99.90
8231;DHT22;4156;50.908;6.974;2023-03-01T07:22:20;2.30;99.90
8231;DHT22;4156;50.908;6.974;2023-03-01T07:24:45;2.30;99.90
8231;DHT22;4156;50.908;6.974;2023-03-01T07:27:12;2.30;99.90
8231;DHT22;4156;50.908;6.974;2023-03-01T07:29:37;2.30;99.90
8231;DHT22;4156;50.908;6.974;2023-03-01T07:32:04;2.30;99.90
8231;DHT22;4156;50.908;6.974;2023-03-01T07:34:30;2.30;99.90
8231;DHT22;4156;50.908;6.974;2023-03-01T07:36:55;2.40;99.90
8231;DHT22;4156;50.908;6.974;2023-03-01T07:39:21;2.50;99.90
8231;DHT22;4156;50.908;6.974;2023-03-01T07:41:48;2.50;99.90
8231;DHT22;4156;50.908;6.974;2023-03-01T07:44:14;2.60;99.90
8231;DHT22;4156;50.908;6.974;2023-03-01T07:46:40;2.60;99.90
8231;DHT22;4156;50.908;6.974;2023-03-01T07:49:06;2.70;99.90
8231;DHT22;4156;50.908;6.974;2023-03-01T07:51:31;2.70;99.90
8231;DHT22;4156;50.908;6.974;2023-03-01T07:53:57;2.80;99.90
8231;DHT22;4156;50.908;6.974;2023-03-01T07:56:22;2.80;99.90
8231;DHT22;4156;50.908;6.974;2023-03-01T07:58:48;2.80;99.90
8231;DHT22;4156;50.908;6.974;2023-03-01T08:01:16;2.90;99.90
8231;DHT22;4156;50.908;6.974;2023-03-01T08:03:42;2.90;99.90
8231;DHT22;4156;50.908;6.974;2023-03-01T08:06:10;3.00;99.90
8231;DHT22;4156;50.908;6.974;2023-03-01T08:08:36;3.00;99.90
8231;DHT22;4156;50.908;6.974;2023-03-01T08:11:04;3.10;99.90
8231;DHT22;4156;50.908;6.974;2023-03-01T08:13:31;3.10;99.90
8231;DHT22;4156;50.908;6.974;2023-03-01T08:16:04;3.10;99.90
8231;DHT22;4156;50.908;6.974;2023-03-01T08:18:30;3.20;99.90
8231;DHT22;4156;50.908;6.974;2023-03-01T08:21:00;3.20;99.90
8231;DHT22;4156;50.908;6.974;2023-03-01T08:23:26;3.20;99.90
8231;DHT22;4156;50.908;6.974;2023-03-01T08:25:51;3.20;99.90
8231;DHT22;4156;50.908;6.974;2023-03-01T08:28:18;3.20;99.90
8231;DHT22;4156;50.908;6.974;2023-03-01T08:30:43;3.20;99.90
8231;DHT22;4156;50.908;6.974;2023-03-01T08:33:09;3.30;99.90
8231;DHT22;4156;50.908;6.974;2023-03-01T08:35:34;3.30;99.90
8231;DHT22;4156;50.908;6.974;2023-03-01T08:38:00;3.40;99.90
8231;DHT22;4156;50.908;6.974;2023-03-01T08:40:25;3.40;99.90
8231;DHT22;4156;50.908;6.974;2023-03-01T08:42:51;3.50;99.90
8231;DHT22;4156;50.908;6.974;2023-03-01T08:45:16;3.50;99.90
8231;DHT22;4156;50.908;6.974;2023-03-01T08:47:44;3.60;99.90
8231;DHT22;4156;50.908;6.974;2023-03-01T08:50:10;3.60;99.90
8231;DHT22;4156;50.908;6.974;2023-03-01T08:52:36;3.60;99.90
8231;DHT22;4156;50.908;6.974;2023-03-01T08:55:01;3.70;99.90
8231;DHT22;4156;50.908;6.974;2023-03-01T08:57:27;3.70;99.90
8231;DHT22;4156;50.908;6.974;2023-03-01T08:59:52;3.80;99.90
8231;DHT22;4156;50.908;6.974;2023-03-01T09:02:18;3.80;99.90
8231;DHT22;4156;50.908;6.974;2023-03-01T09:04:44;3.80;99.90
8231;DHT22;4156;50.908;6.974;2023-03-01T09:07:10;3.90;99.90
8231;DHT22;4156;50.908;6.974;2023-03-01T09:09:36;3.90;99.90
8231;DHT22;4156;50.908;6.974;2023-03-01T09:12:02;4.00;99.90
8231;DHT22;4156;50.908;6.974;2023-03-01T09:14:28;4.00;99.90
8231;DHT22;4156;50.908;6.974;2023-03-01T09:16:54;4.00;99.90
8231;DHT22;4156;50.908;6.974;2023-03-01T09:19:19;4.00;99.90
8231;DHT22;4156;50.908;6.974;2023-03-01T09:21:45;4.10;99.90
8231;DHT22;4156;50.908;6.974;2023-03-01T09:24:19;4.10;99.90
8231;DHT22;4156;50.908;6.974;2023-03-01T09:26:45;4.10;99.90
8231;DHT22;4156;50.908;6.974;2023-03-01T09:29:14;4.10;99.90
8231;DHT22;4156;50.908;6.974;2023-03-01T09:31:40;4.20;99.90
8231;DHT22;4156;50.908;6.974;2023-03-01T09:34:06;4.20;99.90
8231;DHT22;4156;50.908;6.974;2023-03-01T09:36:33;4.30;99.90
8231;DHT22;4156;50.908;6.974;2023-03-01T09:38:59;4.20;99.90
8231;DHT22;4156;50.908;6.974;2023-03-01T09:41:54;4.30;99.90
8231;DHT22;4156;50.908;6.974;2023-03-01T09:44:43;4.30;99.90
8231;DHT22;4156;50.908;6.974;2023-03-01T09:47:19;4.30;99.90
8231;DHT22;4156;50.908;6.974;2023-03-01T09:50:00;4.30;99.90
8231;DHT22;4156;50.908;6.974;2023-03-01T10:00:48;4.40;99.90
8231;DHT22;4156;50.908;6.974;2023-03-01T10:03:28;4.40;99.90
8231;DHT22;4156;50.908;6.974;2023-03-01T10:11:03;4.50;99.90
8231;DHT22;4156;50.908;6.974;2023-03-01T10:16:43;4.50;99.90
8231;DHT22;4156;50.908;6.974;2023-03-01T10:19:33;4.50;99.90
8231;DHT22;4156;50.908;6.974;2023-03-01T10:22:26;4.50;99.90
8231;DHT22;4156;50.908;6.974;2023-03-01T10:24:54;4.60;99.90
8231;DHT22;4156;50.908;6.974;2023-03-01T10:27:40;4.60;99.90
8231;DHT22;4156;50.908;6.974;2023-03-01T10:30:20;4.60;99.90
8231;DHT22;4156;50.908;6.974;2023-03-01T10:32:48;4.60;99.90
8231;DHT22;4156;50.908;6.974;2023-03-01T10:35:22;4.70;99.90
8231;DHT22;4156;50.908;6.974;2023-03-01T10:38:10;4.70;99.90
8231;DHT22;4156;50.908;6.974;2023-03-01T10:40:49;4.70;99.90
8231;DHT22;4156;50.908;6.974;2023-03-01T10:43:14;4.80;99.90
8231;DHT22;4156;50.908;6.974;2023-03-01T10:45:40;4.70;99.90
8231;DHT22;4156;50.908;6.974;2023-03-01T10:48:25;4.80;99.90
8231;DHT22;4156;50.908;6.974;2023-03-01T10:51:16;4.80;99.90
8231;DHT22;4156;50.908;6.974;2023-03-01T10:53:47;4.80;99.90
8231;DHT22;4156;50.908;6.974;2023-03-01T10:56:14;4.80;99.90
8231;DHT22;4156;50.908;6.974;2023-03-01T10:58:58;4.80;99.90
8231;DHT22;4156;50.908;6.974;2023-03-01T11:01:30;4.90;99.90
8231;DHT22;4156;50.908;6.974;2023-03-01T11:06:36;4.90;99.90
8231;DHT22;4156;50.908;6.974;2023-03-01T11:09:23;4.90;99.90
8231;DHT22;4156;50.908;6.974;2023-03-01T11:11:57;5.00;99.90
8231;DHT22;4156;50.908;6.974;2023-03-01T11:14:27;5.00;99.90
8231;DHT22;4156;50.908;6.974;2023-03-01T11:19:25;5.00;99.90
8231;DHT22;4156;50.908;6.974;2023-03-01T11:24:47;5.00;99.90
8231;DHT22;4156;50.908;6.974;2023-03-01T11:27:19;4.90;99.90
8231;DHT22;4156;50.908;6.974;2023-03-01T11:32:26;5.00;99.90
8231;DHT22;4156;50.908;6.974;2023-03-01T11:35:17;5.10;99.90
8231;DHT22;4156;50.908;6.974;2023-03-01T11:38:04;5.10;99.90
8231;DHT22;4156;50.908;6.974;2023-03-01T11:40:37;5.10;99.90
8231;DHT22;4156;50.908;6.974;2023-03-01T11:43:11;5.10;99.90
8231;DHT22;4156;50.908;6.974;2023-03-01T11:46:16;5.10;99.90
8231;DHT22;4156;50.908;6.974;2023-03-01T11:48:47;5.10;99.90
8231;DHT22;4156;50.908;6.974;2023-03-01T11:54:20;5.20;99.90
8231;DHT22;4156;50.908;6.974;2023-03-01T12:00:30;5.20;99.90
8231;DHT22;4156;50.908;6.974;2023-03-01T12:14:28;5.40;99.90
8231;DHT22;4156;50.908;6.974;2023-03-01T12:25:20;5.30;99.90
8231;DHT22;4156;50.908;6.974;2023-03-01T12:39:04;5.50;99.90
8231;DHT22;4156;50.908;6.974;2023-03-01T12:41:42;5.50;99.90
8231;DHT22;4156;50.908;6.974;2023-03-01T12:49:15;5.50;99.90
8231;DHT22;4156;50.908;6.974;2023-03-01T12:51:54;5.50;99.90
8231;DHT22;4156;50.908;6.974;2023-03-01T12:54:33;5.60;99.90
8231;DHT22;4156;50.908;6.974;2023-03-01T12:57:12;5.60;99.90
8231;DHT22;4156;50.908;6.974;2023-03-01T13:00:17;5.60;99.90
8231;DHT22;4156;50.908;6.974;2023-03-01T13:06:16;5.60;99.90
8231;DHT22;4156;50.908;6.974;2023-03-01T13:08:49;5.60;99.90
8231;DHT22;4156;50.908;6.974;2023-03-01T13:11:22;5.70;99.90
8231;DHT22;4156;50.908;6.974;2023-03-01T13:13:48;5.70;99.90
8231;DHT22;4156;50.908;6.974;2023-03-01T13:19:12;5.70;99.90
8231;DHT22;4156;50.908;6.974;2023-03-01T13:21:39;5.80;99.90
8231;DHT22;4156;50.908;6.974;2023-03-01T13:24:22;5.80;99.90
8231;DHT22;4156;50.908;6.974;2023-03-01T13:29:48;5.80;99.90
8231;DHT22;4156;50.908;6.974;2023-03-01T13:32:31;5.90;99.90
8231;DHT22;4156;50.908;6.974;2023-03-01T13:37:44;5.90;99.90
8231;DHT22;4156;50.908;6.974;2023-03-01T13:42:45;5.90;99.90
8231;DHT22;4156;50.908;6.974;2023-03-01T13:48:01;6.00;99.90
8231;DHT22;4156;50.908;6.974;2023-03-01T13:50:30;6.00;99.90
8231;DHT22;4156;50.908;6.974;2023-03-01T13:53:02;6.00;99.90
8231;DHT22;4156;50.908;6.974;2023-03-01T13:55:44;6.00;99.90
8231;DHT22;4156;50.908;6.974;2023-03-01T13:58:43;6.10;99.90
8231;DHT22;4156;50.908;6.974;2023-03-01T14:01:28;6.10;99.90
8231;DHT22;4156;50.908;6.974;2023-03-01T14:03:55;6.20;99.90
8231;DHT22;4156;50.908;6.974;2023-03-01T14:06:29;6.20;99.90
8231;DHT22;4156;50.908;6.974;2023-03-01T14:09:14;6.20;99.90
8231;DHT22;4156;50.908;6.974;2023-03-01T14:12:15;6.20;99.90
8231;DHT22;4156;50.908;6.974;2023-03-01T14:15:03;6.20;99.90
8231;DHT22;4156;50.908;6.974;2023-03-01T14:17:35;6.20;99.90
8231;DHT22;4156;50.908;6.974;2023-03-01T14:20:22;6.20;99.90
8231;DHT22;4156;50.908;6.974;2023-03-01T14:22:50;6.30;99.90
8231;DHT22;4156;50.908;6.974;2023-03-01T14:25:21;6.30;99.90
8231;DHT22;4156;50.908;6.974;2023-03-01T14:27:58;6.30;99.90
8231;DHT22;4156;50.908;6.974;2023-03-01T14:30:27;6.30;99.90
8231;DHT22;4156;50.908;6.974;2023-03-01T14:32:59;6.40;99.90
8231;DHT22;4156;50.908;6.974;2023-03-01T14:35:33;6.40;99.90
8231;DHT22;4156;50.908;6.974;2023-03-01T14:37:59;6.40;99.90
8231;DHT22;4156;50.908;6.974;2023-03-01T14:40:31;6.50;99.90
8231;DHT22;4156;50.908;6.974;2023-03-01T14:42:59;6.50;99.90
8231;DHT22;4156;50.908;6.974;2023-03-01T14:45:27;6.50;99.90
8231;DHT22;4156;50.908;6.974;2023-03-01T14:47:54;6.50;99.90
8231;DHT22;4156;50.908;6.974;2023-03-01T14:50:32;6.60;99.90
8231;DHT22;4156;50.908;6.974;2023-03-01T14:53:04;6.60;99.90
8231;DHT22;4156;50.908;6.974;2023-03-01T14:55:38;6.60;99.90
8231;DHT22;4156;50.908;6.974;2023-03-01T14:58:12;6.70;99.90
8231;DHT22;4156;50.908;6.974;2023-03-01T15:00:39;6.60;99.90
8231;DHT22;4156;50.908;6.974;2023-03-01T15:03:17;6.70;99.90
8231;DHT22;4156;50.908;6.974;2023-03-01T15:05:44;6.70;99.90
8231;DHT22;4156;50.908;6.974;2023-03-01T15:08:28;6.70;99.90
8231;DHT22;4156;50.908;6.974;2023-03-01T15:11:01;6.70;99.90
8231;DHT22;4156;50.908;6.974;2023-03-01T15:13:31;6.70;99.90
8231;DHT22;4156;50.908;6.974;2023-03-01T15:16:14;6.70;99.90
8231;DHT22;4156;50.908;6.974;2023-03-01T15:18:50;6.80;99.90
8231;DHT22;4156;50.908;6.974;2023-03-01T15:23:51;6.90;99.90
8231;DHT22;4156;50.908;6.974;2023-03-01T15:26:23;6.80;99.90
8231;DHT22;4156;50.908;6.974;2023-03-01T15:28:51;6.80;99.90
8231;DHT22;4156;50.908;6.974;2023-03-01T15:31:21;6.90;99.90
8231;DHT22;4156;50.908;6.974;2023-03-01T15:33:47;6.90;99.90
8231;DHT22;4156;50.908;6.974;2023-03-01T15:36:43;6.90;99.90
8231;DHT22;4156;50.908;6.974;2023-03-01T15:39:38;6.90;99.90
8231;DHT22;4156;50.908;6.974;2023-03-01T15:47:51;6.90;99.90
8231;DHT22;4156;50.908;6.974;2023-03-01T15:50:22;6.90;99.90
8231;DHT22;4156;50.908;6.974;2023-03-01T15:52:48;6.90;99.90
8231;DHT22;4156;50.908;6.974;2023-03-01T15:55:20;6.90;99.90
8231;DHT22;4156;50.908;6.974;2023-03-01T15:57:46;7.00;99.90
8231;DHT22;4156;50.908;6.974;2023-03-01T16:00:13;7.00;99.90
8231;DHT22;4156;50.908;6.974;2023-03-01T16:02:40;7.00;99.90
8231;DHT22;4156;50.908;6.974;2023-03-01T16:05:17;7.00;99.90
8231;DHT22;4156;50.908;6.974;2023-03-01T16:07:44;7.00;99.90
8231;DHT22;4156;50.908;6.974;2023-03-01T16:10:09;7.10;99.90
8231;DHT22;4156;50.908;6.974;2023-03-01T16:12:35;7.10;99.90
8231;DHT22;4156;50.908;6.974;2023-03-01T16:15:00;7.00;99.90
8231;DHT22;4156;50.908;6.974;2023-03-01T16:17:26;7.10;99.90
8231;DHT22;4156;50.908;6.974;2023-03-01T16:19:51;7.00;99.90
8231;DHT22;4156;50.908;6.974;2023-03-01T16:22:17;7.00;99.90
8231;DHT22;4156;50.908;6.974;2023-03-01T16:24:42;7.00;99.90
8231;DHT22;4156;50.908;6.974;2023-03-01T16:27:08;7.00;99.90
8231;DHT22;4156;50.908;6.974;2023-03-01T16:29:34;7.10;99.90
8231;DHT22;4156;50.908;6.974;2023-03-01T16:32:01;7.10;99.90
8231;DHT22;4156;50.908;6.974;2023-03-01T16:34:27;7.10;99.90
8231;DHT22;4156;50.908;6.974;2023-03-01T16:36:52;7.10;99.90
8231;DHT22;4156;50.908;6.974;2023-03-01T16:39:18;7.10;99.90
8231;DHT22;4156;50.908;6.974;2023-03-01T16:41:43;7.10;99.90
8231;DHT22;4156;50.908;6.974;2023-03-01T16:44:09;7.10;99.90
8231;DHT22;4156;50.908;6.974;2023-03-01T16:46:34;7.10;99.90
8231;DHT22;4156;50.908;6.974;2023-03-01T16:49:00;7.20;99.90
8231;DHT22;4156;50.908;6.974;2023-03-01T16:51:25;7.10;99.90
8231;DHT22;4156;50.908;6.974;2023-03-01T16:53:51;7.10;99.90
8231;DHT22;4156;50.908;6.974;2023-03-01T16:56:18;7.10;99.90
8231;DHT22;4156;50.908;6.974;2023-03-01T16:58:44;7.10;99.90
8231;DHT22;4156;50.908;6.974;2023-03-01T17:01:10;7.20;99.90
8231;DHT22;4156;50.908;6.974;2023-03-01T17:03:37;7.10;99.90
8231;DHT22;4156;50.908;6.974;2023-03-01T17:06:11;7.10;99.90
8231;DHT22;4156;50.908;6.974;2023-03-01T17:08:38;7.10;99.90
8231;DHT22;4156;50.908;6.974;2023-03-01T17:11:10;7.10;99.90
8231;DHT22;4156;50.908;6.974;2023-03-01T17:13:37;7.10;99.90
8231;DHT22;4156;50.908;6.974;2023-03-01T17:16:05;7.10;99.90
8231;DHT22;4156;50.908;6.974;2023-03-01T17:18:32;7.10;99.90
8231;DHT22;4156;50.908;6.974;2023-03-01T17:20:58;7.10;99.90
8231;DHT22;4156;50.908;6.974;2023-03-01T17:23:23;7.10;99.90
8231;DHT22;4156;50.908;6.974;2023-03-01T17:25:49;7.10;99.90
8231;DHT22;4156;50.908;6.974;2023-03-01T17:28:14;7.10;99.90
8231;DHT22;4156;50.908;6.974;2023-03-01T17:30:41;7.10;99.90
8231;DHT22;4156;50.908;6.974;2023-03-01T17:33:08;7.10;99.90
8231;DHT22;4156;50.908;6.974;2023-03-01T17:35:33;7.10;99.90
8231;DHT22;4156;50.908;6.974;2023-03-01T17:38:01;7.10;99.90
8231;DHT22;4156;50.908;6.974;2023-03-01T17:40:27;7.10;99.90
8231;DHT22;4156;50.908;6.974;2023-03-01T17:42:52;7.00;99.90
8231;DHT22;4156;50.908;6.974;2023-03-01T17:45:18;7.00;99.90
8231;DHT22;4156;50.908;6.974;2023-03-01T17:47:43;7.00;99.90
8231;DHT22;4156;50.908;6.974;2023-03-01T17:50:09;7.00;99.90
8231;DHT22;4156;50.908;6.974;2023-03-01T17:52:36;7.00;99.90
8231;DHT22;4156;50.908;6.974;2023-03-01T17:55:02;7.00;99.90
8231;DHT22;4156;50.908;6.974;2023-03-01T17:57:27;7.00;99.90
8231;DHT22;4156;50.908;6.974;2023-03-01T17:59:53;7.00;99.90
8231;DHT22;4156;50.908;6.974;2023-03-01T18:02:18;7.00;99.90
8231;DHT22;4156;50.908;6.974;2023-03-01T18:04:45;7.00;99.90
8231;DHT22;4156;50.908;6.974;2023-03-01T18:07:10;6.90;99.90
8231;DHT22;4156;50.908;6.974;2023-03-01T18:09:36;6.90;99.90
8231;DHT22;4156;50.908;6.974;2023-03-01T18:12:01;6.90;99.90
8231;DHT22;4156;50.908;6.974;2023-03-01T18:14:27;6.90;99.90
8231;DHT22;4156;50.908;6.974;2023-03-01T18:16:58;6.90;99.90
8231;DHT22;4156;50.908;6.974;2023-03-01T18:19:24;6.90;99.90